Oregon State Flying Club

The Oregon State Flying Club is a non-profit organization committed to providing safe and inexpensive flying to the Oregon State University and Linn-Benton Community College communities. The Club currently owns three aircraft based at the Corvallis Airport for training, travel, and recreational purposes. Founded in 1952 and incorporated in 1956 the OSFC is one of the oldest continuously active flying clubs in the United States.

News & Announcements

OSFC Open House

Corvallis Airport, Saturday, May 2nd, 10:00am to 3:00pm

Monthly Board Meeting

Next Meeting: Wednesday, April 22, 6pm, Memorial Union Board Room

Current METAR KCVO

Raw METAR:  KCVO 011735Z AUTO 17005KT 10SM FEW047 BKN060 OVC075 09/06 A3038 RMK AO1

This is a report for Corvallis Municipal Automatic Weather Observing / Reporting System, United States. The report was made 13 minutes ago, at 17:35 UTC. The wind was blowing at a speed of 5.8 miles per hour (2.6 meters per second) from south (170°). The temperature was 48 °F (9 °C), with a dew-point at 43 °F (6 °C). The atmospheric pressure was 30.38 inHg (1029 hPa). The relative humidity was 81.5%. There were a few clouds at a height of 4700 feet (1433 meters) and broken clouds at a height of 6000 feet (1829 meters). The sky was overcast from a height of 7500 feet (2286 meter) The overall visibility was 10.0 miles (16.1 kilometers).